Hauptseite
METAR-TAF:

METAR-TAF

Flughäfen :

Auckland, Neuseeland

Flughafen Auckland

Breite: 37-01S, Länge: 174-48E, Höhe: 7 m

Beobachtung

Neuester Wetterbericht von vor 21 Minuten, um 15:30 UTC
Wind 3 kt aus Süd
Temperatur 7°C
Luftfeuchtigkeit 93%
Luftdruck 1020 hPa
Sichtweite 10 km oder mehr

METAR: NZAA 271530Z AUTO 17003KT 9999 NCD 07/06 Q1020 NOSIG

Zeit: 03:51 (15:51 UTC)

Prognose

Neuester Wetterbericht von vor 4 Stunden und 44 Minuten, um 11:07 UTC
Gültige Prognose vom 27 um 12 UTC bis 28 um 12 UTC
Wind 5 kt aus Ost/Südost
Sichtweite 10 km oder mehr
keine Wolken unter 1500 m und keine Kumulonimbus oder Gewitterwolken

TAF: NZAA 271107Z 2712/2812 12005KT CAVOK

Wetterbeobachtungen und Prognosen von mehr als 4000 Flughäfen (METAR und TAF Bericht).

Die verfügbaren Stationen werden durch gelbe und rote Markierungen auf der Karte dargestellt.

Führen Sie die Maus auf sie, um den Namen der Station zu sehen.

Darauf klicken, um die Beobachtung von Wetterbeobachtungen und Prognosen zu sehen.

Um die Karte zu ändern : klicken Sie auf den grünen Tasten mit einem schwarzen Kreuz Zum Vergrößern, auf den grünen Button mit einem Gedankenstrich zu verkleinern, oder auf die grünen Pfeile für benachbarte Karten.


METAR-TAF: